sensor_id;sensor_type;location;lat;lon;timestamp;P1;durP1;ratioP1;P2;durP2;ratioP2
7116;SDS011;3600;48.568;7.870;2022-12-18T00:01:02;45.00;;;24.27;;
7116;SDS011;3600;48.568;7.870;2022-12-18T00:03:32;46.20;;;24.47;;
7116;SDS011;3600;48.568;7.870;2022-12-18T00:06:00;46.73;;;23.33;;
7116;SDS011;3600;48.568;7.870;2022-12-18T00:08:27;46.23;;;21.57;;
7116;SDS011;3600;48.568;7.870;2022-12-18T00:10:54;46.97;;;23.67;;
7116;SDS011;3600;48.568;7.870;2022-12-18T00:13:25;52.60;;;24.73;;
7116;SDS011;3600;48.568;7.870;2022-12-18T00:15:53;50.43;;;23.43;;
7116;SDS011;3600;48.568;7.870;2022-12-18T00:18:21;51.70;;;22.70;;
7116;SDS011;3600;48.568;7.870;2022-12-18T00:20:48;48.83;;;24.10;;
7116;SDS011;3600;48.568;7.870;2022-12-18T00:23:15;52.10;;;24.07;;
7116;SDS011;3600;48.568;7.870;2022-12-18T00:25:41;50.37;;;23.13;;
7116;SDS011;3600;48.568;7.870;2022-12-18T00:28:08;53.50;;;24.37;;
7116;SDS011;3600;48.568;7.870;2022-12-18T00:30:35;45.87;;;22.53;;
7116;SDS011;3600;48.568;7.870;2022-12-18T00:33:01;52.13;;;26.37;;
7116;SDS011;3600;48.568;7.870;2022-12-18T00:35:28;53.70;;;23.67;;
7116;SDS011;3600;48.568;7.870;2022-12-18T00:37:55;46.00;;;23.33;;
7116;SDS011;3600;48.568;7.870;2022-12-18T00:40:22;44.97;;;23.83;;
7116;SDS011;3600;48.568;7.870;2022-12-18T00:42:48;51.37;;;24.57;;
7116;SDS011;3600;48.568;7.870;2022-12-18T00:45:25;54.50;;;23.40;;
7116;SDS011;3600;48.568;7.870;2022-12-18T00:47:54;42.73;;;23.40;;
7116;SDS011;3600;48.568;7.870;2022-12-18T00:50:22;56.37;;;26.23;;
7116;SDS011;3600;48.568;7.870;2022-12-18T00:52:50;55.17;;;23.60;;
7116;SDS011;3600;48.568;7.870;2022-12-18T00:55:17;51.23;;;24.27;;
7116;SDS011;3600;48.568;7.870;2022-12-18T00:57:44;54.43;;;25.17;;
7116;SDS011;3600;48.568;7.870;2022-12-18T01:00:12;48.90;;;24.97;;
7116;SDS011;3600;48.568;7.870;2022-12-18T01:02:40;60.63;;;25.17;;
7116;SDS011;3600;48.568;7.870;2022-12-18T01:05:08;60.07;;;25.17;;
7116;SDS011;3600;48.568;7.870;2022-12-18T01:07:37;55.20;;;24.63;;
7116;SDS011;3600;48.568;7.870;2022-12-18T01:10:04;55.17;;;23.93;;
7116;SDS011;3600;48.568;7.870;2022-12-18T01:12:31;55.37;;;24.30;;
7116;SDS011;3600;48.568;7.870;2022-12-18T01:14:58;60.33;;;24.80;;
7116;SDS011;3600;48.568;7.870;2022-12-18T01:17:25;67.27;;;24.87;;
7116;SDS011;3600;48.568;7.870;2022-12-18T01:19:52;54.30;;;24.17;;
7116;SDS011;3600;48.568;7.870;2022-12-18T01:22:18;49.87;;;24.43;;
7116;SDS011;3600;48.568;7.870;2022-12-18T01:24:45;46.83;;;23.10;;
7116;SDS011;3600;48.568;7.870;2022-12-18T01:27:12;67.47;;;24.30;;
7116;SDS011;3600;48.568;7.870;2022-12-18T01:29:38;47.63;;;23.40;;
7116;SDS011;3600;48.568;7.870;2022-12-18T01:32:05;52.20;;;25.77;;
7116;SDS011;3600;48.568;7.870;2022-12-18T01:34:32;56.33;;;25.03;;
7116;SDS011;3600;48.568;7.870;2022-12-18T01:37:02;52.27;;;23.23;;
7116;SDS011;3600;48.568;7.870;2022-12-18T01:39:32;53.53;;;25.03;;
7116;SDS011;3600;48.568;7.870;2022-12-18T01:42:00;52.30;;;25.10;;
7116;SDS011;3600;48.568;7.870;2022-12-18T01:52:52;55.60;;;26.53;;
7116;SDS011;3600;48.568;7.870;2022-12-18T01:55:20;51.13;;;25.00;;
7116;SDS011;3600;48.568;7.870;2022-12-18T01:57:54;56.77;;;24.77;;
7116;SDS011;3600;48.568;7.870;2022-12-18T02:00:23;55.00;;;24.67;;
7116;SDS011;3600;48.568;7.870;2022-12-18T02:02:50;49.30;;;24.40;;
7116;SDS011;3600;48.568;7.870;2022-12-18T02:05:19;46.83;;;22.63;;
7116;SDS011;3600;48.568;7.870;2022-12-18T02:08:26;48.30;;;23.77;;
7116;SDS011;3600;48.568;7.870;2022-12-18T02:14:04;51.37;;;21.93;;
7116;SDS011;3600;48.568;7.870;2022-12-18T02:16:39;51.43;;;24.77;;
7116;SDS011;3600;48.568;7.870;2022-12-18T02:28:04;53.33;;;24.40;;
7116;SDS011;3600;48.568;7.870;2022-12-18T02:30:35;50.27;;;22.53;;
7116;SDS011;3600;48.568;7.870;2022-12-18T02:33:07;50.80;;;23.77;;
7116;SDS011;3600;48.568;7.870;2022-12-18T02:35:35;50.50;;;23.83;;
7116;SDS011;3600;48.568;7.870;2022-12-18T02:38:04;54.97;;;23.77;;
7116;SDS011;3600;48.568;7.870;2022-12-18T02:40:32;50.60;;;24.33;;
7116;SDS011;3600;48.568;7.870;2022-12-18T02:43:06;51.73;;;24.93;;
7116;SDS011;3600;48.568;7.870;2022-12-18T02:45:46;54.20;;;23.97;;
7116;SDS011;3600;48.568;7.870;2022-12-18T02:48:25;46.80;;;22.73;;
7116;SDS011;3600;48.568;7.870;2022-12-18T02:50:59;46.50;;;23.30;;
7116;SDS011;3600;48.568;7.870;2022-12-18T02:53:39;45.30;;;22.40;;
7116;SDS011;3600;48.568;7.870;2022-12-18T02:56:32;43.70;;;21.87;;
7116;SDS011;3600;48.568;7.870;2022-12-18T03:02:42;47.30;;;22.60;;
7116;SDS011;3600;48.568;7.870;2022-12-18T03:05:17;58.10;;;23.37;;
7116;SDS011;3600;48.568;7.870;2022-12-18T03:08:06;53.97;;;25.53;;
7116;SDS011;3600;48.568;7.870;2022-12-18T03:10:51;47.77;;;23.47;;
7116;SDS011;3600;48.568;7.870;2022-12-18T03:13:31;52.13;;;24.27;;
7116;SDS011;3600;48.568;7.870;2022-12-18T03:16:10;58.47;;;24.63;;
7116;SDS011;3600;48.568;7.870;2022-12-18T03:21:13;48.67;;;23.57;;
7116;SDS011;3600;48.568;7.870;2022-12-18T03:23:44;45.67;;;20.83;;
7116;SDS011;3600;48.568;7.870;2022-12-18T03:26:16;39.20;;;21.00;;
7116;SDS011;3600;48.568;7.870;2022-12-18T03:28:48;46.17;;;20.77;;
7116;SDS011;3600;48.568;7.870;2022-12-18T03:31:25;43.23;;;20.77;;
7116;SDS011;3600;48.568;7.870;2022-12-18T03:33:57;41.53;;;19.60;;
7116;SDS011;3600;48.568;7.870;2022-12-18T03:36:27;37.37;;;19.13;;
7116;SDS011;3600;48.568;7.870;2022-12-18T03:38:54;40.13;;;19.30;;
7116;SDS011;3600;48.568;7.870;2022-12-18T03:44:23;38.47;;;18.17;;
7116;SDS011;3600;48.568;7.870;2022-12-18T03:52:03;35.43;;;18.57;;
7116;SDS011;3600;48.568;7.870;2022-12-18T03:54:35;36.70;;;16.97;;
7116;SDS011;3600;48.568;7.870;2022-12-18T03:57:06;34.17;;;19.30;;
7116;SDS011;3600;48.568;7.870;2022-12-18T03:59:37;35.07;;;18.13;;
7116;SDS011;3600;48.568;7.870;2022-12-18T04:02:06;39.23;;;18.23;;
7116;SDS011;3600;48.568;7.870;2022-12-18T04:04:34;32.23;;;16.97;;
7116;SDS011;3600;48.568;7.870;2022-12-18T04:07:04;36.63;;;18.47;;
7116;SDS011;3600;48.568;7.870;2022-12-18T04:09:31;35.90;;;17.90;;
7116;SDS011;3600;48.568;7.870;2022-12-18T04:12:00;35.53;;;19.23;;
7116;SDS011;3600;48.568;7.870;2022-12-18T04:14:26;35.47;;;17.47;;
7116;SDS011;3600;48.568;7.870;2022-12-18T04:16:53;33.53;;;16.87;;
7116;SDS011;3600;48.568;7.870;2022-12-18T04:19:20;34.43;;;17.43;;
7116;SDS011;3600;48.568;7.870;2022-12-18T04:21:47;34.83;;;18.23;;
7116;SDS011;3600;48.568;7.870;2022-12-18T04:24:13;34.73;;;18.60;;
7116;SDS011;3600;48.568;7.870;2022-12-18T04:26:40;37.13;;;19.13;;
7116;SDS011;3600;48.568;7.870;2022-12-18T04:29:07;33.97;;;17.47;;
7116;SDS011;3600;48.568;7.870;2022-12-18T04:31:34;39.10;;;19.23;;
7116;SDS011;3600;48.568;7.870;2022-12-18T04:34:00;41.33;;;19.60;;
7116;SDS011;3600;48.568;7.870;2022-12-18T04:36:27;37.87;;;19.57;;
7116;SDS011;3600;48.568;7.870;2022-12-18T04:38:54;39.80;;;18.43;;
7116;SDS011;3600;48.568;7.870;2022-12-18T04:41:21;39.03;;;19.40;;
7116;SDS011;3600;48.568;7.870;2022-12-18T04:43:48;70.03;;;29.43;;
7116;SDS011;3600;48.568;7.870;2022-12-18T04:46:15;43.27;;;21.47;;
7116;SDS011;3600;48.568;7.870;2022-12-18T04:48:41;45.00;;;20.57;;
7116;SDS011;3600;48.568;7.870;2022-12-18T04:51:11;46.43;;;21.83;;
7116;SDS011;3600;48.568;7.870;2022-12-18T04:53:38;44.70;;;20.97;;
7116;SDS011;3600;48.568;7.870;2022-12-18T04:56:06;39.27;;;20.07;;
7116;SDS011;3600;48.568;7.870;2022-12-18T04:58:35;45.47;;;20.17;;
7116;SDS011;3600;48.568;7.870;2022-12-18T05:01:03;40.73;;;20.63;;
7116;SDS011;3600;48.568;7.870;2022-12-18T05:03:30;48.63;;;19.97;;
7116;SDS011;3600;48.568;7.870;2022-12-18T05:05:57;47.50;;;21.73;;
7116;SDS011;3600;48.568;7.870;2022-12-18T05:08:24;45.93;;;21.60;;
7116;SDS011;3600;48.568;7.870;2022-12-18T05:11:10;40.23;;;19.50;;
7116;SDS011;3600;48.568;7.870;2022-12-18T05:13:42;39.83;;;19.13;;
7116;SDS011;3600;48.568;7.870;2022-12-18T05:16:10;42.60;;;18.90;;
7116;SDS011;3600;48.568;7.870;2022-12-18T05:18:37;46.87;;;19.77;;
7116;SDS011;3600;48.568;7.870;2022-12-18T05:21:05;35.53;;;17.60;;
7116;SDS011;3600;48.568;7.870;2022-12-18T05:23:31;41.47;;;18.97;;
7116;SDS011;3600;48.568;7.870;2022-12-18T05:25:59;33.23;;;16.67;;
7116;SDS011;3600;48.568;7.870;2022-12-18T05:28:28;39.13;;;17.13;;
7116;SDS011;3600;48.568;7.870;2022-12-18T05:30:57;48.20;;;20.03;;
7116;SDS011;3600;48.568;7.870;2022-12-18T05:33:27;42.70;;;22.17;;
7116;SDS011;3600;48.568;7.870;2022-12-18T05:35:57;48.13;;;22.50;;
7116;SDS011;3600;48.568;7.870;2022-12-18T05:38:26;37.20;;;20.27;;
7116;SDS011;3600;48.568;7.870;2022-12-18T05:40:54;37.03;;;18.37;;
7116;SDS011;3600;48.568;7.870;2022-12-18T05:43:22;35.93;;;16.17;;
7116;SDS011;3600;48.568;7.870;2022-12-18T05:45:50;32.97;;;16.93;;
7116;SDS011;3600;48.568;7.870;2022-12-18T05:48:17;33.33;;;16.37;;
7116;SDS011;3600;48.568;7.870;2022-12-18T05:50:44;38.90;;;16.63;;
7116;SDS011;3600;48.568;7.870;2022-12-18T05:53:13;34.50;;;16.83;;
7116;SDS011;3600;48.568;7.870;2022-12-18T05:55:42;32.30;;;16.30;;
7116;SDS011;3600;48.568;7.870;2022-12-18T05:58:10;30.63;;;15.43;;
7116;SDS011;3600;48.568;7.870;2022-12-18T06:00:44;30.57;;;15.27;;
7116;SDS011;3600;48.568;7.870;2022-12-18T06:03:12;33.20;;;16.37;;
7116;SDS011;3600;48.568;7.870;2022-12-18T06:05:43;32.27;;;15.87;;
7116;SDS011;3600;48.568;7.870;2022-12-18T06:08:11;31.30;;;16.30;;
7116;SDS011;3600;48.568;7.870;2022-12-18T06:10:39;39.20;;;16.47;;
7116;SDS011;3600;48.568;7.870;2022-12-18T06:13:06;34.93;;;15.80;;
7116;SDS011;3600;48.568;7.870;2022-12-18T06:15:35;33.77;;;15.97;;
7116;SDS011;3600;48.568;7.870;2022-12-18T06:18:03;36.57;;;15.57;;
7116;SDS011;3600;48.568;7.870;2022-12-18T06:20:30;26.87;;;15.13;;
7116;SDS011;3600;48.568;7.870;2022-12-18T06:22:59;31.23;;;14.87;;
7116;SDS011;3600;48.568;7.870;2022-12-18T06:25:26;32.67;;;15.30;;
7116;SDS011;3600;48.568;7.870;2022-12-18T06:27:52;37.30;;;16.43;;
7116;SDS011;3600;48.568;7.870;2022-12-18T06:30:19;29.93;;;15.53;;
7116;SDS011;3600;48.568;7.870;2022-12-18T06:32:47;36.63;;;14.50;;
7116;SDS011;3600;48.568;7.870;2022-12-18T06:35:21;29.70;;;14.83;;
7116;SDS011;3600;48.568;7.870;2022-12-18T06:37:48;28.60;;;13.97;;
7116;SDS011;3600;48.568;7.870;2022-12-18T06:40:15;24.67;;;15.13;;
7116;SDS011;3600;48.568;7.870;2022-12-18T06:42:42;27.37;;;13.50;;
7116;SDS011;3600;48.568;7.870;2022-12-18T06:45:09;24.70;;;13.43;;
7116;SDS011;3600;48.568;7.870;2022-12-18T06:47:37;27.30;;;14.53;;
7116;SDS011;3600;48.568;7.870;2022-12-18T06:50:04;29.30;;;14.63;;
7116;SDS011;3600;48.568;7.870;2022-12-18T06:52:32;30.13;;;14.93;;
7116;SDS011;3600;48.568;7.870;2022-12-18T06:54:59;37.80;;;15.13;;
7116;SDS011;3600;48.568;7.870;2022-12-18T06:57:26;33.40;;;16.63;;
7116;SDS011;3600;48.568;7.870;2022-12-18T06:59:53;31.60;;;16.63;;
7116;SDS011;3600;48.568;7.870;2022-12-18T07:02:20;36.17;;;19.73;;
7116;SDS011;3600;48.568;7.870;2022-12-18T07:04:47;31.17;;;16.83;;
7116;SDS011;3600;48.568;7.870;2022-12-18T07:07:13;33.10;;;17.87;;
7116;SDS011;3600;48.568;7.870;2022-12-18T07:09:40;36.07;;;16.87;;
7116;SDS011;3600;48.568;7.870;2022-12-18T07:12:07;30.23;;;15.07;;
7116;SDS011;3600;48.568;7.870;2022-12-18T07:14:34;33.73;;;15.70;;
7116;SDS011;3600;48.568;7.870;2022-12-18T07:17:00;32.90;;;16.80;;
7116;SDS011;3600;48.568;7.870;2022-12-18T07:19:28;27.57;;;15.40;;
7116;SDS011;3600;48.568;7.870;2022-12-18T07:21:56;29.33;;;15.47;;
7116;SDS011;3600;48.568;7.870;2022-12-18T07:24:22;30.23;;;15.73;;
7116;SDS011;3600;48.568;7.870;2022-12-18T07:26:49;32.97;;;16.10;;
7116;SDS011;3600;48.568;7.870;2022-12-18T07:29:16;34.90;;;15.53;;
7116;SDS011;3600;48.568;7.870;2022-12-18T07:31:43;32.23;;;15.27;;
7116;SDS011;3600;48.568;7.870;2022-12-18T07:34:10;30.80;;;15.17;;
7116;SDS011;3600;48.568;7.870;2022-12-18T07:36:37;31.07;;;14.87;;
7116;SDS011;3600;48.568;7.870;2022-12-18T07:39:04;28.47;;;14.80;;
7116;SDS011;3600;48.568;7.870;2022-12-18T07:41:31;31.60;;;13.93;;
7116;SDS011;3600;48.568;7.870;2022-12-18T07:43:58;33.57;;;15.23;;
7116;SDS011;3600;48.568;7.870;2022-12-18T07:46:25;36.80;;;17.23;;
7116;SDS011;3600;48.568;7.870;2022-12-18T07:48:51;32.77;;;16.53;;
7116;SDS011;3600;48.568;7.870;2022-12-18T07:51:18;38.03;;;16.40;;
7116;SDS011;3600;48.568;7.870;2022-12-18T07:53:45;34.00;;;17.23;;
7116;SDS011;3600;48.568;7.870;2022-12-18T07:56:17;32.10;;;15.97;;
7116;SDS011;3600;48.568;7.870;2022-12-18T07:58:55;34.30;;;16.50;;
7116;SDS011;3600;48.568;7.870;2022-12-18T08:01:22;32.20;;;15.80;;
7116;SDS011;3600;48.568;7.870;2022-12-18T08:03:49;31.73;;;16.07;;
7116;SDS011;3600;48.568;7.870;2022-12-18T08:06:17;31.97;;;16.97;;
7116;SDS011;3600;48.568;7.870;2022-12-18T08:08:50;31.23;;;15.73;;
7116;SDS011;3600;48.568;7.870;2022-12-18T08:11:20;30.00;;;15.67;;
7116;SDS011;3600;48.568;7.870;2022-12-18T08:13:48;28.37;;;15.67;;
7116;SDS011;3600;48.568;7.870;2022-12-18T08:16:15;31.03;;;15.17;;
7116;SDS011;3600;48.568;7.870;2022-12-18T08:18:42;33.20;;;16.17;;
7116;SDS011;3600;48.568;7.870;2022-12-18T08:21:13;36.57;;;17.77;;
7116;SDS011;3600;48.568;7.870;2022-12-18T08:23:42;31.73;;;16.60;;
7116;SDS011;3600;48.568;7.870;2022-12-18T08:26:09;30.23;;;16.37;;
7116;SDS011;3600;48.568;7.870;2022-12-18T08:28:37;39.93;;;16.60;;
7116;SDS011;3600;48.568;7.870;2022-12-18T08:31:05;36.90;;;16.93;;
7116;SDS011;3600;48.568;7.870;2022-12-18T08:33:32;32.73;;;18.23;;
7116;SDS011;3600;48.568;7.870;2022-12-18T08:36:00;32.77;;;17.07;;
7116;SDS011;3600;48.568;7.870;2022-12-18T08:38:27;30.87;;;17.50;;
7116;SDS011;3600;48.568;7.870;2022-12-18T08:40:58;31.30;;;15.37;;
7116;SDS011;3600;48.568;7.870;2022-12-18T08:43:33;32.63;;;17.00;;
7116;SDS011;3600;48.568;7.870;2022-12-18T08:46:19;30.23;;;15.57;;
7116;SDS011;3600;48.568;7.870;2022-12-18T08:48:47;29.80;;;16.97;;
7116;SDS011;3600;48.568;7.870;2022-12-18T08:51:15;30.63;;;16.20;;
7116;SDS011;3600;48.568;7.870;2022-12-18T08:53:43;31.40;;;15.60;;
7116;SDS011;3600;48.568;7.870;2022-12-18T08:56:10;30.53;;;14.93;;
7116;SDS011;3600;48.568;7.870;2022-12-18T08:58:38;33.50;;;17.53;;
7116;SDS011;3600;48.568;7.870;2022-12-18T09:01:05;31.00;;;16.87;;
7116;SDS011;3600;48.568;7.870;2022-12-18T09:03:38;31.90;;;15.10;;
7116;SDS011;3600;48.568;7.870;2022-12-18T09:06:06;31.43;;;16.80;;
7116;SDS011;3600;48.568;7.870;2022-12-18T09:08:33;33.40;;;17.93;;
7116;SDS011;3600;48.568;7.870;2022-12-18T09:11:00;33.27;;;17.23;;
7116;SDS011;3600;48.568;7.870;2022-12-18T09:13:26;24.30;;;13.80;;
7116;SDS011;3600;48.568;7.870;2022-12-18T09:15:54;24.33;;;13.97;;
7116;SDS011;3600;48.568;7.870;2022-12-18T09:18:22;23.40;;;13.17;;
7116;SDS011;3600;48.568;7.870;2022-12-18T09:20:50;25.50;;;14.27;;
7116;SDS011;3600;48.568;7.870;2022-12-18T09:23:19;24.73;;;14.67;;
7116;SDS011;3600;48.568;7.870;2022-12-18T09:25:46;22.83;;;13.50;;
7116;SDS011;3600;48.568;7.870;2022-12-18T09:28:14;29.27;;;15.17;;
7116;SDS011;3600;48.568;7.870;2022-12-18T09:30:44;21.30;;;12.70;;
7116;SDS011;3600;48.568;7.870;2022-12-18T09:33:13;27.40;;;14.60;;
7116;SDS011;3600;48.568;7.870;2022-12-18T09:35:41;25.37;;;14.97;;
7116;SDS011;3600;48.568;7.870;2022-12-18T09:38:13;23.80;;;13.87;;
7116;SDS011;3600;48.568;7.870;2022-12-18T09:40:43;28.60;;;14.60;;
7116;SDS011;3600;48.568;7.870;2022-12-18T09:43:15;24.57;;;13.97;;
7116;SDS011;3600;48.568;7.870;2022-12-18T09:45:51;27.63;;;14.50;;
7116;SDS011;3600;48.568;7.870;2022-12-18T09:48:32;30.43;;;15.03;;
7116;SDS011;3600;48.568;7.870;2022-12-18T09:51:22;25.60;;;15.60;;
7116;SDS011;3600;48.568;7.870;2022-12-18T09:53:59;28.53;;;15.63;;
7116;SDS011;3600;48.568;7.870;2022-12-18T09:56:31;30.27;;;16.00;;
7116;SDS011;3600;48.568;7.870;2022-12-18T09:59:03;31.27;;;16.27;;
7116;SDS011;3600;48.568;7.870;2022-12-18T10:01:31;28.80;;;15.60;;
7116;SDS011;3600;48.568;7.870;2022-12-18T10:04:09;28.53;;;15.87;;
7116;SDS011;3600;48.568;7.870;2022-12-18T10:06:42;27.67;;;16.63;;
7116;SDS011;3600;48.568;7.870;2022-12-18T10:14:52;33.43;;;16.90;;
7116;SDS011;3600;48.568;7.870;2022-12-18T10:20:32;32.20;;;17.50;;
7116;SDS011;3600;48.568;7.870;2022-12-18T10:26:04;37.23;;;18.63;;
7116;SDS011;3600;48.568;7.870;2022-12-18T10:28:33;38.23;;;18.40;;
7116;SDS011;3600;48.568;7.870;2022-12-18T10:31:06;42.10;;;18.73;;
7116;SDS011;3600;48.568;7.870;2022-12-18T10:33:53;47.53;;;21.67;;
7116;SDS011;3600;48.568;7.870;2022-12-18T10:36:22;42.67;;;19.97;;
7116;SDS011;3600;48.568;7.870;2022-12-18T10:38:50;39.53;;;21.07;;
7116;SDS011;3600;48.568;7.870;2022-12-18T10:43:46;42.77;;;21.90;;
7116;SDS011;3600;48.568;7.870;2022-12-18T10:46:17;41.20;;;19.97;;
7116;SDS011;3600;48.568;7.870;2022-12-18T10:54:01;38.40;;;19.40;;
7116;SDS011;3600;48.568;7.870;2022-12-18T10:56:30;42.97;;;18.93;;
7116;SDS011;3600;48.568;7.870;2022-12-18T10:59:00;37.57;;;17.53;;
7116;SDS011;3600;48.568;7.870;2022-12-18T11:01:47;37.93;;;18.10;;
7116;SDS011;3600;48.568;7.870;2022-12-18T11:04:17;34.83;;;19.30;;
7116;SDS011;3600;48.568;7.870;2022-12-18T11:07:20;43.33;;;22.80;;
7116;SDS011;3600;48.568;7.870;2022-12-18T11:09:39;43.43;;;23.07;;
7116;SDS011;3600;48.568;7.870;2022-12-18T11:14:47;40.30;;;20.77;;
7116;SDS011;3600;48.568;7.870;2022-12-18T11:17:29;39.63;;;20.83;;
7116;SDS011;3600;48.568;7.870;2022-12-18T11:19:59;42.80;;;20.37;;
7116;SDS011;3600;48.568;7.870;2022-12-18T11:22:34;39.40;;;20.63;;
7116;SDS011;3600;48.568;7.870;2022-12-18T11:25:06;43.40;;;20.17;;
7116;SDS011;3600;48.568;7.870;2022-12-18T11:30:31;47.37;;;22.43;;
7116;SDS011;3600;48.568;7.870;2022-12-18T11:38:39;42.27;;;20.80;;
7116;SDS011;3600;48.568;7.870;2022-12-18T11:41:21;48.80;;;20.80;;
7116;SDS011;3600;48.568;7.870;2022-12-18T11:44:10;45.13;;;20.27;;
7116;SDS011;3600;48.568;7.870;2022-12-18T11:46:51;39.60;;;19.57;;
7116;SDS011;3600;48.568;7.870;2022-12-18T11:49:26;40.03;;;17.93;;
7116;SDS011;3600;48.568;7.870;2022-12-18T11:54:26;38.30;;;17.70;;
7116;SDS011;3600;48.568;7.870;2022-12-18T11:56:58;34.33;;;17.00;;
7116;SDS011;3600;48.568;7.870;2022-12-18T12:03:00;38.00;;;18.30;;
7116;SDS011;3600;48.568;7.870;2022-12-18T12:06:03;43.57;;;18.30;;
7116;SDS011;3600;48.568;7.870;2022-12-18T12:08:52;45.23;;;19.87;;
7116;SDS011;3600;48.568;7.870;2022-12-18T12:19:39;42.43;;;20.60;;
7116;SDS011;3600;48.568;7.870;2022-12-18T12:22:30;39.07;;;19.13;;
7116;SDS011;3600;48.568;7.870;2022-12-18T12:25:33;42.43;;;20.23;;
7116;SDS011;3600;48.568;7.870;2022-12-18T12:39:18;37.93;;;18.27;;
7116;SDS011;3600;48.568;7.870;2022-12-18T12:41:48;33.63;;;19.23;;
7116;SDS011;3600;48.568;7.870;2022-12-18T12:44:42;43.17;;;20.23;;
7116;SDS011;3600;48.568;7.870;2022-12-18T12:47:22;38.37;;;20.33;;
7116;SDS011;3600;48.568;7.870;2022-12-18T12:50:00;33.80;;;18.90;;
7116;SDS011;3600;48.568;7.870;2022-12-18T12:52:40;42.23;;;21.50;;
7116;SDS011;3600;48.568;7.870;2022-12-18T12:55:14;43.10;;;21.10;;
7116;SDS011;3600;48.568;7.870;2022-12-18T12:57:55;41.00;;;20.53;;
7116;SDS011;3600;48.568;7.870;2022-12-18T13:00:41;44.03;;;19.60;;
7116;SDS011;3600;48.568;7.870;2022-12-18T13:05:59;39.90;;;22.23;;
7116;SDS011;3600;48.568;7.870;2022-12-18T13:08:31;51.40;;;24.50;;
7116;SDS011;3600;48.568;7.870;2022-12-18T13:11:35;42.97;;;23.40;;
7116;SDS011;3600;48.568;7.870;2022-12-18T13:14:32;49.10;;;25.77;;
7116;SDS011;3600;48.568;7.870;2022-12-18T13:20:03;45.83;;;23.07;;
7116;SDS011;3600;48.568;7.870;2022-12-18T13:22:37;47.33;;;23.00;;
7116;SDS011;3600;48.568;7.870;2022-12-18T13:40:57;44.67;;;21.70;;
7116;SDS011;3600;48.568;7.870;2022-12-18T13:45:59;40.97;;;22.07;;
7116;SDS011;3600;48.568;7.870;2022-12-18T13:48:27;40.93;;;21.17;;
7116;SDS011;3600;48.568;7.870;2022-12-18T13:50:57;45.20;;;23.00;;
7116;SDS011;3600;48.568;7.870;2022-12-18T13:53:34;44.90;;;22.53;;
7116;SDS011;3600;48.568;7.870;2022-12-18T13:56:05;48.03;;;23.07;;
7116;SDS011;3600;48.568;7.870;2022-12-18T13:58:33;47.23;;;23.57;;
7116;SDS011;3600;48.568;7.870;2022-12-18T14:01:01;40.30;;;21.33;;
7116;SDS011;3600;48.568;7.870;2022-12-18T14:03:30;40.97;;;22.07;;
7116;SDS011;3600;48.568;7.870;2022-12-18T14:06:02;45.83;;;22.40;;
7116;SDS011;3600;48.568;7.870;2022-12-18T14:08:37;42.70;;;22.97;;
7116;SDS011;3600;48.568;7.870;2022-12-18T14:11:07;46.73;;;22.47;;
7116;SDS011;3600;48.568;7.870;2022-12-18T14:13:47;43.00;;;22.93;;
7116;SDS011;3600;48.568;7.870;2022-12-18T14:16:14;42.27;;;21.67;;
7116;SDS011;3600;48.568;7.870;2022-12-18T14:18:48;46.13;;;22.30;;
7116;SDS011;3600;48.568;7.870;2022-12-18T14:21:26;41.97;;;21.83;;
7116;SDS011;3600;48.568;7.870;2022-12-18T14:24:06;46.67;;;23.20;;
7116;SDS011;3600;48.568;7.870;2022-12-18T14:26:45;43.93;;;22.80;;
7116;SDS011;3600;48.568;7.870;2022-12-18T14:29:23;46.03;;;22.13;;
7116;SDS011;3600;48.568;7.870;2022-12-18T14:34:51;44.47;;;22.17;;
7116;SDS011;3600;48.568;7.870;2022-12-18T14:37:21;47.57;;;24.23;;
7116;SDS011;3600;48.568;7.870;2022-12-18T14:39:57;46.97;;;24.40;;
7116;SDS011;3600;48.568;7.870;2022-12-18T14:42:29;48.00;;;22.83;;
7116;SDS011;3600;48.568;7.870;2022-12-18T14:48:08;52.40;;;24.73;;
7116;SDS011;3600;48.568;7.870;2022-12-18T14:51:05;42.40;;;21.33;;
7116;SDS011;3600;48.568;7.870;2022-12-18T14:53:41;42.93;;;23.63;;
7116;SDS011;3600;48.568;7.870;2022-12-18T14:58:49;45.43;;;24.20;;
7116;SDS011;3600;48.568;7.870;2022-12-18T15:01:25;53.40;;;25.13;;
7116;SDS011;3600;48.568;7.870;2022-12-18T15:03:58;50.87;;;23.90;;
7116;SDS011;3600;48.568;7.870;2022-12-18T15:06:34;47.63;;;24.43;;
7116;SDS011;3600;48.568;7.870;2022-12-18T15:09:20;45.63;;;23.07;;
7116;SDS011;3600;48.568;7.870;2022-12-18T15:11:48;47.27;;;24.30;;
7116;SDS011;3600;48.568;7.870;2022-12-18T15:14:23;46.93;;;24.37;;
7116;SDS011;3600;48.568;7.870;2022-12-18T15:17:01;50.63;;;25.17;;
7116;SDS011;3600;48.568;7.870;2022-12-18T15:19:40;54.50;;;25.17;;
7116;SDS011;3600;48.568;7.870;2022-12-18T15:22:25;43.80;;;23.23;;
7116;SDS011;3600;48.568;7.870;2022-12-18T15:24:53;44.90;;;23.13;;
7116;SDS011;3600;48.568;7.870;2022-12-18T15:27:31;50.43;;;25.57;;
7116;SDS011;3600;48.568;7.870;2022-12-18T15:32:36;52.03;;;25.83;;
7116;SDS011;3600;48.568;7.870;2022-12-18T15:37:51;60.30;;;30.47;;
7116;SDS011;3600;48.568;7.870;2022-12-18T15:40:22;56.67;;;28.73;;
7116;SDS011;3600;48.568;7.870;2022-12-18T15:42:51;54.07;;;29.23;;
7116;SDS011;3600;48.568;7.870;2022-12-18T15:45:39;51.80;;;26.57;;
7116;SDS011;3600;48.568;7.870;2022-12-18T15:48:21;75.33;;;36.37;;
7116;SDS011;3600;48.568;7.870;2022-12-18T15:50:50;50.07;;;26.33;;
7116;SDS011;3600;48.568;7.870;2022-12-18T15:53:18;56.00;;;26.33;;
7116;SDS011;3600;48.568;7.870;2022-12-18T15:55:45;46.73;;;23.10;;
7116;SDS011;3600;48.568;7.870;2022-12-18T15:58:30;40.83;;;22.77;;
7116;SDS011;3600;48.568;7.870;2022-12-18T16:00:57;47.33;;;23.30;;
7116;SDS011;3600;48.568;7.870;2022-12-18T16:03:25;52.67;;;26.30;;
7116;SDS011;3600;48.568;7.870;2022-12-18T16:05:52;46.53;;;25.53;;
7116;SDS011;3600;48.568;7.870;2022-12-18T16:08:21;48.93;;;25.60;;
7116;SDS011;3600;48.568;7.870;2022-12-18T16:10:48;49.63;;;27.00;;
7116;SDS011;3600;48.568;7.870;2022-12-18T16:13:15;56.73;;;26.97;;
7116;SDS011;3600;48.568;7.870;2022-12-18T16:15:44;52.83;;;26.40;;
7116;SDS011;3600;48.568;7.870;2022-12-18T16:18:11;54.70;;;25.63;;
7116;SDS011;3600;48.568;7.870;2022-12-18T16:20:38;54.07;;;25.20;;
7116;SDS011;3600;48.568;7.870;2022-12-18T16:23:05;53.27;;;27.73;;
7116;SDS011;3600;48.568;7.870;2022-12-18T16:25:32;56.50;;;26.70;;
7116;SDS011;3600;48.568;7.870;2022-12-18T16:28:00;61.47;;;28.10;;
7116;SDS011;3600;48.568;7.870;2022-12-18T16:30:27;58.90;;;26.20;;
7116;SDS011;3600;48.568;7.870;2022-12-18T16:33:03;50.93;;;25.73;;
7116;SDS011;3600;48.568;7.870;2022-12-18T16:35:30;63.20;;;27.97;;
7116;SDS011;3600;48.568;7.870;2022-12-18T16:37:57;55.43;;;26.83;;
7116;SDS011;3600;48.568;7.870;2022-12-18T16:40:23;50.30;;;24.73;;
7116;SDS011;3600;48.568;7.870;2022-12-18T16:42:50;58.63;;;27.57;;
7116;SDS011;3600;48.568;7.870;2022-12-18T16:45:17;53.33;;;27.43;;
7116;SDS011;3600;48.568;7.870;2022-12-18T16:47:45;53.93;;;24.13;;
7116;SDS011;3600;48.568;7.870;2022-12-18T16:50:12;51.67;;;26.07;;
7116;SDS011;3600;48.568;7.870;2022-12-18T16:52:39;55.73;;;27.03;;
7116;SDS011;3600;48.568;7.870;2022-12-18T16:55:06;57.67;;;25.93;;
7116;SDS011;3600;48.568;7.870;2022-12-18T16:57:33;107.93;;;52.00;;
7116;SDS011;3600;48.568;7.870;2022-12-18T17:00:00;58.70;;;30.47;;
7116;SDS011;3600;48.568;7.870;2022-12-18T17:02:31;55.27;;;24.37;;
7116;SDS011;3600;48.568;7.870;2022-12-18T17:04:58;50.87;;;25.33;;
7116;SDS011;3600;48.568;7.870;2022-12-18T17:07:25;58.80;;;26.07;;
7116;SDS011;3600;48.568;7.870;2022-12-18T17:09:53;49.23;;;24.60;;
7116;SDS011;3600;48.568;7.870;2022-12-18T17:12:21;49.10;;;24.07;;
7116;SDS011;3600;48.568;7.870;2022-12-18T17:14:48;53.67;;;29.10;;
7116;SDS011;3600;48.568;7.870;2022-12-18T17:17:15;62.47;;;30.17;;
7116;SDS011;3600;48.568;7.870;2022-12-18T17:19:48;58.60;;;28.03;;